Latest Weather Observations for Gold Coast Seaway

IDQ60801

Issued at 2:52 pm EST Saturday 22 February 2020 (issued every 10 minutes, with the page automatically refreshed every 10 minutes)

About weather observations | Map of weather stations | Latest weather observations for QLD | Other Formats
Station Details ID: 040764 Name: GOLD COAST SEAWAY Lat: -27.94 Lon: 153.43 Height: 2.98 m
Data from the previous 72 hours. | See also: Recent months at Gold Coast Seaway
Date/Time
EST
Temp
°C
App
Temp
°C
Dew
Point
°C
Rel
Hum
%
Delta-T
°C
Wind Press
QNH
hPa
Press
MSL
hPa
Rain since
9am
mm
Dir  Spd
km/h
Gust
km/h
Spd
kts
Gust
kts
22/02:30pm 26.2 22.8 18.1 61 5.1 SE 33 41 18 22 1019.1 1019.1 2.0
22/02:00pm 26.8 23.6 18.6 60 5.2 SE 33 39 18 21 1019.2 1019.2 2.0
22/01:30pm 26.3 22.5 18.2 61 5.1 SSE 35 43 19 23 1019.4 1019.4 2.0
22/01:00pm 26.9 23.1 17.1 55 6.1 SSE 33 41 18 22 1019.7 1019.7 2.0
22/12:30pm 26.5 22.9 18.6 62 5.0 SE 35 44 19 24 1019.7 1019.7 2.0
22/12:00pm 26.8 23.0 18.1 59 5.5 SE 35 43 19 23 1020.0 1020.0 2.0
22/11:30am 27.2 23.8 19.0 61 5.3 SE 35 46 19 25 1020.1 1020.1 2.0
22/11:00am 26.6 23.9 20.4 69 4.1 SSE 35 44 19 24 1020.3 1020.3 2.0
22/10:30am 24.2 24.7 20.9 82 2.2 S 19 35 10 19 1020.6 1020.6 2.0
22/10:00am 22.7 23.7 19.5 82 2.0 SSW 13 28 7 15 1020.6 1020.6 2.0
22/09:34am 25.4 22.6 19.1 68 4.0 SSE 32 50 17 27 1020.4 1020.4 0.0
22/09:30am 26.7 24.6 19.8 66 4.5 S 30 35 16 19 1020.3 1020.3 0.0
22/09:00am 28.1 26.2 20.1 62 5.2 SE 30 33 16 18 1019.9 1019.9 0.4
22/08:30am 27.2 26.1 20.3 66 4.5 SE 26 32 14 17 1019.6 1019.6 0.4
22/08:00am 24.7 26.5 20.4 77 2.8 S 11 22 6 12 1019.5 1019.5 0.4
22/07:30am 25.5 25.5 18.9 67 4.2 S 17 24 9 13 1019.2 1019.2 0.0
22/07:00am 25.2 22.9 19.3 70 3.8 ESE 30 33 16 18 1018.8 1018.8 0.0
22/06:30am 25.2 24.0 19.3 70 3.8 SE 24 28 13 15 1018.2 1018.2 0.0
22/06:00am 24.5 24.6 19.1 72 3.4 SSE 17 20 9 11 1017.9 1017.9 0.0
22/05:30am 24.3 23.7 18.5 70 3.7 SSE 19 32 10 17 1017.7 1017.7 0.0
22/05:00am 25.0 23.4 18.4 66 4.2 SE 24 30 13 16 1017.4 1017.4 0.0
22/04:30am 24.8 23.7 19.4 72 3.5 SE 24 30 13 16 1017.0 1017.0 0.0
22/04:00am 25.1 23.7 18.8 68 4.0 SE 24 28 13 15 1016.6 1016.6 0.0
22/03:30am 25.1 24.7 19.0 69 3.9 ESE 19 22 10 12 1016.5 1016.5 0.0
22/03:00am 25.0 24.3 18.7 68 4.0 ESE 20 24 11 13 1016.4 1016.4 0.0
22/02:30am 25.0 24.3 18.7 68 4.0 ESE 20 24 11 13 1016.4 1016.4 0.0
22/02:00am 25.1 24.3 18.5 67 4.2 ESE 20 26 11 14 1016.3 1016.3 0.0
22/01:30am 25.1 24.9 18.5 67 4.2 ESE 17 22 9 12 1016.4 1016.4 0.0
22/01:00am 25.3 24.4 18.2 64 4.5 ESE 20 24 11 13 1016.7 1016.7 0.0
22/12:30am 25.4 24.5 18.3 65 4.5 ESE 20 26 11 14 1016.9 1016.9 0.0
22/12:00am 25.4 23.8 18.3 65 4.5 ESE 24 28 13 15 1017.1 1017.1 0.0
 
Date/Time
EST
Temp
°C
App
Temp
°C
Dew
Point
°C
Rel
Hum
%
Delta-T
°C
Wind Press
QNH
hPa
Press
MSL
hPa
Rain since
9am
mm
Dir  Spd
km/h
Gust
km/h
Spd
kts
Gust
kts
21/11:30pm 25.4 23.6 17.8 62 4.8 SE 24 28 13 15 1017.0 1017.0 0.0
21/11:00pm 25.5 23.8 18.2 64 4.6 SE 24 28 13 15 1017.2 1017.2 0.0
21/10:30pm 25.4 23.7 18.1 64 4.6 ESE 24 28 13 15 1017.1 1017.1 0.0
21/10:00pm 25.6 24.1 18.5 65 4.5 SE 24 28 13 15 1016.9 1016.9 0.0
21/09:30pm 25.7 24.8 18.1 63 4.8 ESE 20 24 11 13 1016.9 1016.9 0.0
21/09:00pm 25.7 24.4 18.1 63 4.8 ESE 22 28 12 15 1016.7 1016.7 0.0
21/08:30pm 25.7 24.0 18.1 63 4.8 ESE 24 30 13 16 1016.4 1016.4 0.0
21/08:00pm 25.7 24.0 18.1 63 4.8 ESE 24 28 13 15 1016.0 1016.0 0.0
21/07:30pm 25.6 24.2 18.0 63 4.8 ESE 22 26 12 14 1015.6 1015.6 0.0
21/07:00pm 25.5 23.5 18.2 64 4.6 ESE 26 30 14 16 1015.1 1015.1 0.0
21/06:30pm 25.5 22.7 18.2 64 4.6 ESE 30 32 16 17 1014.4 1014.4 0.0
21/06:00pm 25.7 23.0 18.4 64 4.6 ESE 30 33 16 18 1014.1 1014.1 0.0
21/05:30pm 26.0 23.8 18.7 64 4.7 ESE 28 35 15 19 1014.0 1014.0 0.0
21/05:00pm 26.2 23.4 18.3 61 5.0 ESE 30 33 16 18 1013.8 1013.8 0.0
21/04:30pm 26.5 24.4 18.9 63 4.9 ESE 28 32 15 17 1013.4 1013.4 0.0
21/04:00pm 26.7 24.9 18.8 62 5.1 ESE 26 30 14 16 1013.2 1013.2 0.0
21/03:30pm 27.0 25.4 19.1 62 5.1 ESE 26 32 14 17 1013.3 1013.3 0.0
21/03:00pm 28.2 26.5 18.9 57 6.0 ESE 26 30 14 16 1013.3 1013.3 0.0
21/02:30pm 28.9 29.4 20.1 59 5.8 SE 17 19 9 10 1013.6 1013.6 0.0
21/02:00pm 28.6 29.2 20.3 60 5.5 ESE 17 19 9 10 1013.9 1013.9 0.0
21/01:30pm 28.4 28.6 20.2 61 5.4 E 19 22 10 12 1014.0 1014.0 0.0
21/01:00pm 28.3 29.1 19.8 60 5.5 E 15 19 8 10 1014.4 1014.4 0.0
21/12:30pm 28.4 29.7 20.2 61 5.4 E 13 17 7 9 1014.6 1014.6 0.0
21/12:00pm 28.8 29.8 20.3 60 5.6 ESE 15 17 8 9 1014.8 1014.8 0.0
21/11:30am 27.5 28.6 19.6 62 5.1 E 13 17 7 9 1014.9 1014.9 0.0
21/11:00am 27.8 28.6 19.8 61 5.2 ESE 15 17 8 9 1015.1 1015.1 0.0
21/10:30am 28.2 29.8 21.5 67 4.5 SE 15 19 8 10 1015.2 1015.2 0.0
21/10:00am 27.3 28.1 20.6 67 4.4 SE 17 19 9 10 1015.2 1015.2 0.0
21/09:30am 27.3 27.8 20.9 68 4.2 SE 19 20 10 11 1015.1 1015.1 0.0
21/09:00am 26.2 27.2 20.3 70 3.9 SE 15 19 8 10 1015.0 1015.0 0.0
21/08:30am 25.1 25.8 20.4 75 3.1 SSE 17 20 9 11 1014.7 1014.7 0.0
21/08:00am 25.2 25.5 20.5 75 3.1 SSE 19 20 10 11 1014.5 1014.5 0.0
21/07:30am 24.9 24.8 20.8 78 2.7 SSE 22 30 12 16 1014.3 1014.3 0.0
21/07:00am 24.4 23.4 20.5 79 2.5 SSE 26 33 14 18 1013.8 1013.8 0.0
21/06:30am 24.0 22.4 20.1 79 2.5 SSE 28 33 15 18 1013.5 1013.5 0.0
21/06:00am 23.8 22.1 19.9 79 2.5 SSE 28 33 15 18 1012.9 1012.9 0.0
21/05:30am 23.4 23.0 19.3 78 2.6 S 20 30 11 16 1012.5 1012.5 0.0
21/05:00am 22.6 23.7 18.8 79 2.4 S 11 15 6 8 1012.1 1012.1 0.0
21/04:30am 22.7 24.0 18.5 77 2.6 SSW 9 11 5 6 1011.6 1011.6 0.0
21/04:00am 23.1 24.5 18.6 76 2.8 S 9 9 5 5 1011.4 1011.4 0.0
21/03:30am 23.7 24.9 19.0 75 3.0 S 11 17 6 9 1011.1 1011.1 0.0
21/03:00am 23.7 24.9 19.0 75 3.0 S 11 15 6 8 1011.2 1011.2 0.0
21/02:30am 23.7 24.0 18.8 74 3.1 S 15 19 8 10 1011.1 1011.1 0.0
21/02:00am 24.4 23.9 19.2 73 3.3 S 20 28 11 15 1011.2 1011.2 0.0
21/01:30am 24.8 25.3 19.2 71 3.6 S 15 19 8 10 1011.4 1011.4 0.0
21/01:00am 25.5 26.0 20.1 72 3.5 SE 17 20 9 11 1011.6 1011.6 0.0
21/12:30am 25.3 25.5 20.1 73 3.4 SE 19 26 10 14 1011.9 1011.9 0.0
21/12:00am 25.2 25.4 20.5 75 3.1 S 20 24 11 13 1012.3 1012.3 0.0
 
Date/Time
EST
Temp
°C
App
Temp
°C
Dew
Point
°C
Rel
Hum
%
Delta-T
°C
Wind Press
QNH
hPa
Press
MSL
hPa
Rain since
9am
mm
Dir  Spd
km/h
Gust
km/h
Spd
kts
Gust
kts
20/11:30pm 25.0 25.1 19.1 70 3.8 S 17 20 9 11 1012.3 1012.3 0.0
20/11:00pm 25.1 24.8 19.2 70 3.8 S 19 24 10 13 1012.3 1012.3 0.0
20/10:30pm 25.4 25.6 19.3 69 3.9 S 17 19 9 10 1012.4 1012.4 0.0
20/10:00pm 25.8 25.7 19.9 70 3.8 SSE 20 28 11 15 1012.1 1012.1 0.0
20/09:30pm 26.2 25.3 19.8 68 4.2 SE 24 28 13 15 1012.0 1012.0 0.0
20/09:00pm 26.2 25.9 19.6 67 4.3 SE 20 26 11 14 1011.8 1011.8 0.0
20/08:30pm 26.2 25.2 20.5 71 3.7 SE 26 30 14 16 1011.3 1011.3 0.0
20/08:00pm 26.0 25.7 20.3 71 3.7 SE 22 30 12 16 1010.9 1010.9 0.0
20/07:30pm 25.9 25.1 20.0 70 3.8 SE 24 28 13 15 1010.2 1010.2 0.0
20/07:00pm 26.0 24.7 19.9 69 4.0 SE 26 30 14 16 1009.7 1009.7 0.0
20/06:30pm 26.1 25.1 19.7 68 4.1 SE 24 28 13 15 1009.4 1009.4 0.0
20/06:00pm 26.6 25.8 20.0 67 4.3 SE 24 32 13 17 1008.9 1008.9 0.0
20/05:30pm 27.2 26.4 20.0 64 4.7 SE 24 30 13 16 1008.4 1008.4 0.0
20/05:00pm 27.7 26.5 19.2 60 5.5 SSE 24 28 13 15 1008.0 1008.0 0.0
20/04:30pm 28.2 26.6 20.0 61 5.4 SE 28 33 15 18 1007.7 1007.7 0.0
20/04:00pm 28.8 27.4 20.5 61 5.5 SE 28 33 15 18 1007.5 1007.5 0.0
20/03:30pm 28.8 27.4 19.7 58 5.9 SE 26 32 14 17 1007.4 1007.4 0.0
20/03:00pm 29.8 28.1 19.8 55 6.6 SE 28 33 15 18 1007.3 1007.3 0.0
20/02:30pm 30.0 28.4 20.0 55 6.6 SE 28 32 15 17 1007.4 1007.4 0.0
20/02:00pm 29.9 28.2 19.9 55 6.6 SE 28 33 15 18 1007.6 1007.6 0.0
20/01:30pm 30.2 29.4 21.6 60 5.8 SE 28 32 15 17 1007.7 1007.7 0.0
20/01:00pm 30.2 29.6 21.3 59 6.0 SE 26 32 14 17 1007.7 1007.7 0.0
20/12:30pm 30.1 28.6 21.7 60 5.7 SE 32 37 17 20 1007.6 1007.6 0.0
20/12:00pm 29.9 28.8 21.8 62 5.5 SE 30 35 16 19 1008.0 1008.0 0.0
20/11:30am 30.0 28.6 21.1 59 5.9 SE 30 33 16 18 1008.1 1008.1 0.0
20/11:00am 29.8 28.0 20.4 57 6.2 SE 30 35 16 19 1008.3 1008.3 0.0
20/10:30am 29.7 28.5 21.6 61 5.4 SE 30 33 16 18 1008.4 1008.4 0.0
20/10:00am 29.3 28.2 21.0 61 5.5 SE 28 32 15 17 1008.4 1008.4 0.0
20/09:30am 29.1 29.2 21.1 62 5.3 SSE 22 28 12 15 1008.3 1008.3 0.0
20/09:00am 29.2 28.8 20.9 61 5.5 SSE 24 32 13 17 1008.2 1008.2 0.0
20/08:30am 28.0 26.9 20.3 63 5.1 SSE 26 32 14 17 1008.1 1008.1 0.0
20/08:00am 27.6 26.7 20.7 66 4.6 SSE 26 32 14 17 1007.7 1007.7 0.0
20/07:30am 26.9 25.4 21.0 70 3.9 S 30 35 16 19 1007.4 1007.4 0.0
20/07:00am 26.2 24.4 21.2 74 3.3 SSE 32 35 17 19 1007.2 1007.2 0.0
20/06:30am 25.6 24.5 21.7 79 2.6 SSE 30 35 16 19 1006.7 1006.7 0.0
20/06:00am 25.0 23.4 21.5 81 2.3 SSE 32 37 17 20 1006.2 1006.2 0.0
20/05:30am 24.8 24.0 21.7 83 2.1 SSE 28 33 15 18 1005.8 1005.8 0.0
20/05:00am 24.9 24.7 22.0 84 1.9 SSE 26 32 14 17 1005.4 1005.4 0.0
20/04:30am 25.1 26.0 22.6 86 1.7 SSE 22 30 12 16 1005.1 1005.1 0.0
20/04:00am 25.4 26.8 22.9 86 1.7 SSE 20 26 11 14 1004.7 1004.7 0.0
20/03:30am 24.9 27.8 21.8 83 2.1 WSW 9 20 5 11 1004.6 1004.6 0.0
20/03:00am 25.3 28.7 22.0 82 2.2 WNW 7 9 4 5 1004.1 1004.1 0.0
20/02:30am 25.7 28.9 22.4 82 2.2 NW 9 9 5 5 1004.1 1004.1 0.0
20/02:00am 25.7 30.2 22.2 81 2.4 W 2 7 1 4 1004.5 1004.5 0.0
20/01:30am 26.1 29.7 22.4 80 2.5 W 7 9 4 5 1004.6 1004.6 0.0
20/01:00am 26.6 29.3 22.9 80 2.5 WNW 13 15 7 8 1004.7 1004.7 0.0
20/12:30am 26.4 29.0 22.0 77 2.9 W 11 15 6 8 1004.9 1004.9 0.0
20/12:00am 26.6 29.1 21.8 75 3.2 NW 11 15 6 8 1004.8 1004.8 0.0
 
Date/Time
EST
Temp
°C
App
Temp
°C
Dew
Point
°C
Rel
Hum
%
Delta-T
°C
Wind Press
QNH
hPa
Press
MSL
hPa
Rain since
9am
mm
Dir  Spd
km/h
Gust
km/h
Spd
kts
Gust
kts
19/11:30pm 26.1 28.1 20.7 72 3.5 NNW 11 15 6 8 1005.2 1005.2 0.0
19/11:00pm 26.2 27.2 20.3 70 3.9 NNW 15 19 8 10 1004.8 1004.8 0.0
19/10:30pm 26.4 29.4 22.0 77 2.9 NW 9 15 5 8 1005.0 1005.0 0.0
19/10:00pm 26.7 29.1 22.3 77 3.0 NW 13 15 7 8 1004.8 1004.8 0.0
19/09:30pm 27.0 30.0 23.3 80 2.5 NNW 13 17 7 9 1005.1 1005.1 0.0
19/09:00pm 27.5 29.4 23.7 80 2.6 NNW 20 28 11 15 1005.7 1005.7 0.0
19/08:30pm 27.5 29.3 23.5 79 2.7 N 20 28 11 15 1005.0 1005.0 0.0
19/08:00pm 27.9 30.7 24.3 81 2.5 NNW 17 28 9 15 1004.8 1004.8 0.0
19/07:30pm 27.1 29.5 23.6 81 2.4 N 17 22 9 12 1004.6 1004.6 0.0
19/07:00pm 26.8 28.6 23.5 82 2.3 N 20 26 11 14 1004.2 1004.2 0.0
19/06:30pm 27.0 27.6 23.5 81 2.4 N 26 32 14 17 1003.7 1003.7 0.0
19/06:00pm 27.6 27.4 23.4 78 2.9 N 30 33 16 18 1003.2 1003.2 0.0
19/05:30pm 28.0 27.3 23.6 77 3.0 N 33 37 18 20 1003.3 1003.3 0.0
19/05:00pm 28.6 27.5 23.5 74 3.5 NNE 35 41 19 22 1003.1 1003.1 0.0
19/04:30pm 29.5 28.7 23.4 69 4.2 NNE 33 39 18 21 1003.1 1003.1 0.0
19/04:00pm 29.8 29.0 23.3 68 4.5 NNE 33 37 18 20 1003.2 1003.2 0.0
19/03:30pm 30.7 30.0 23.6 66 4.9 NNE 33 37 18 20 1003.3 1003.3 0.0
19/03:00pm 30.4 29.2 23.3 66 4.9 NNE 35 39 19 21 1003.5 1003.5 0.0

Other formats

Comma delimited format used in spreadsheet applications
http://www.bom.gov.au/fwo/IDQ60801/IDQ60801.94580.axf

JavaScript Object Notation format (JSON) in row-major order
http://www.bom.gov.au/fwo/IDQ60801/IDQ60801.94580.json

Data quality

Most of these data are generated automatically and are frequently updated. Quality checks on data are not normally performed. It is possible for incorrect values to appear. Refer to information at About Latest Weather Observations and please check the disclaimer before using these data.